This is the latest recevied weather packets stored in our database for station/object W7BTL. If no packets are shown the sender has not sent any weather packets the latest 10 day(s).
| Time | Temp. | Humidity | Pressure | Rain* | Wind** | Luminosity | Snow |
|---|---|---|---|---|---|---|---|
| 1778084029 | 25° C | 46% | 1018.3 hPa | 0 mm | - | 159 W/m² | - |
| 1778083727 | 23.89° C | 48% | 1018.4 hPa | 0 mm | - | 645 W/m² | - |
| 1778083424 | 23.33° C | 50% | 1018.4 hPa | 0 mm | - | 615 W/m² | - |
| 1778083122 | 22.78° C | 52% | 1018.5 hPa | 0 mm | - | 576 W/m² | - |
| 1778082819 | 23.89° C | 48% | 1018.5 hPa | 0 mm | - | 118 W/m² | - |
| 1778081690 | 22.78° C | 53% | 1018.4 hPa | 0 mm | - | 396 W/m² | - |
| 1778081388 | 22.22° C | 55% | 1018.5 hPa | 0 mm | - | 415 W/m² | - |
| 1778081085 | 21.11° C | 58% | 1018.5 hPa | 0 mm | - | 396 W/m² | - |
| 1778080783 | 20° C | 61% | 1018.4 hPa | 0 mm | - | 367 W/m² | - |
| 1778080480 | 19.44° C | 64% | 1018.6 hPa | 0 mm | - | 360 W/m² | - |
| 1778080178 | 18.89° C | 67% | 1018.6 hPa | 0 mm | - | 250 W/m² | - |
| 1778079873 | 17.78° C | 69% | 1018.5 hPa | 0 mm | - | 246 W/m² | - |
| 1778079571 | 17.22° C | 71% | 1018.5 hPa | 0 mm | - | 193 W/m² | - |
| 1778079267 | 17.22° C | 73% | 1018.6 hPa | 0 mm | - | 240 W/m² | - |
| 1778078965 | 16.67° C | 74% | 1018.6 hPa | 0 mm | - | 235 W/m² | - |
| 1778078661 | 16.11° C | 76% | 1018.4 hPa | 0 mm | - | 217 W/m² | - |
| 1778078360 | 15.56° C | 78% | 1018.3 hPa | 0 mm | - | 187 W/m² | - |
| 1778078056 | 15.56° C | 79% | 1018.4 hPa | 0 mm | - | 177 W/m² | - |
| 1778077754 | 15° C | 81% | 1018.5 hPa | 0 mm | - | 162 W/m² | - |
| 1778077452 | 15° C | 82% | 1018.5 hPa | 0 mm | - | 134 W/m² | - |
| 1778077150 | 14.44° C | 84% | 1018.6 hPa | 0 mm | - | 122 W/m² | - |
| 1778076848 | 13.89° C | 85% | 1018.3 hPa | 0 mm | - | 105 W/m² | - |
| 1778076546 | 13.33° C | 87% | 1018.2 hPa | 0 mm | - | 91 W/m² | - |
| 1778076242 | 12.78° C | 90% | 1018 hPa | 0 mm | - | 65 W/m² | - |
| 1778075939 | 12.22° C | 91% | 1018.1 hPa | 0 mm | - | 47 W/m² | - |
* Rain latest hour (hover to see other rain measurements)
** Current wind speed in m/s (hover to see current wind gust speed)